createdAt,value
2022-10-12T00:01:33.742Z,100860.56
2022-10-12T00:04:00.170Z,100853.59
2022-10-12T00:06:26.628Z,100850.88
2022-10-12T00:08:54.814Z,100858.38
2022-10-12T00:11:26.654Z,100862.34
2022-10-12T00:13:53.741Z,100858.47
2022-10-12T00:16:21.709Z,100856.88
2022-10-12T00:18:52.443Z,100851.78
2022-10-12T00:21:19.024Z,100854.91
2022-10-12T00:23:45.997Z,100858.13
2022-10-12T00:26:18.370Z,100861.63
2022-10-12T00:28:45.076Z,100861.53
2022-10-12T00:31:14.773Z,100854.66
2022-10-12T00:33:41.984Z,100861.06
2022-10-12T00:36:17.089Z,100865.56
2022-10-12T00:38:43.607Z,100860.84
2022-10-12T00:41:10.684Z,100858.69
2022-10-12T00:43:41.640Z,100860.66
2022-10-12T00:46:37.416Z,100861.44
2022-10-12T00:49:12.829Z,100862.06
2022-10-12T00:51:44.316Z,100860.28
2022-10-12T00:54:14.504Z,100858.97
2022-10-12T00:56:43.341Z,100858.97
2022-10-12T00:59:12.788Z,100861.81
2022-10-12T01:01:39.463Z,100863.63
2022-10-12T01:04:06.391Z,100874.25
2022-10-12T01:06:33.635Z,100877.28
2022-10-12T01:09:00.282Z,100875.28
2022-10-12T01:11:26.715Z,100880.00
2022-10-12T01:13:53.132Z,100879.34
2022-10-12T01:16:33.953Z,100879.53
2022-10-12T01:19:45.195Z,100882.53
2022-10-12T01:22:15.919Z,100884.41
2022-10-12T01:24:52.901Z,100885.00
2022-10-12T01:27:52.262Z,100885.00
2022-10-12T01:30:23.124Z,100882.53
2022-10-12T01:32:55.096Z,100889.31
2022-10-12T01:35:25.631Z,100887.25
2022-10-12T01:38:12.814Z,100881.69
2022-10-12T01:40:44.357Z,100883.56
2022-10-12T01:43:10.867Z,100882.53
2022-10-12T01:45:37.367Z,100887.31
2022-10-12T01:48:04.915Z,100883.97
2022-10-12T01:50:38.020Z,100893.91
2022-10-12T01:53:27.557Z,100883.47
2022-10-12T01:56:21.119Z,100886.28
2022-10-12T01:59:17.631Z,100892.75
2022-10-12T02:01:52.854Z,100893.03
2022-10-12T02:04:28.126Z,100890.47
2022-10-12T02:07:01.192Z,100896.63
2022-10-12T02:09:29.917Z,100898.09
2022-10-12T02:11:58.481Z,100893.31
2022-10-12T02:14:31.500Z,100895.28
2022-10-12T02:17:04.652Z,100897.81
2022-10-12T02:19:36.033Z,100892.81
2022-10-12T02:22:05.192Z,100900.19
2022-10-12T02:24:33.519Z,100906.66
2022-10-12T02:27:00.899Z,100900.63
2022-10-12T02:29:34.302Z,100908.72
2022-10-12T02:32:24.155Z,100904.31
2022-10-12T02:34:56.861Z,100905.16
2022-10-12T02:37:25.964Z,100905.69
2022-10-12T02:39:59.979Z,100908.38
2022-10-12T02:42:41.855Z,100910.28
2022-10-12T02:45:19.330Z,100911.97
2022-10-12T02:47:47.161Z,100906.53
2022-10-12T02:50:15.525Z,100911.63
2022-10-12T02:52:42.248Z,100908.31
2022-10-12T02:55:08.807Z,100914.53
2022-10-12T02:57:35.396Z,100913.19
2022-10-12T03:00:01.973Z,100908.84
2022-10-12T03:02:28.711Z,100902.66
2022-10-12T03:04:55.125Z,100905.44
2022-10-12T03:07:21.526Z,100905.38
2022-10-12T03:09:48.115Z,100894.94
2022-10-12T03:12:14.622Z,100897.06
2022-10-12T03:14:41.118Z,100895.38
2022-10-12T03:17:07.901Z,100896.53
2022-10-12T03:19:34.327Z,100892.97
2022-10-12T03:22:00.890Z,100898.06
2022-10-12T03:24:28.205Z,100897.72
2022-10-12T03:26:54.633Z,100897.59
2022-10-12T03:29:21.082Z,100896.38
2022-10-12T03:31:47.532Z,100900.75
2022-10-12T03:34:13.941Z,100906.03
2022-10-12T03:36:40.400Z,100908.22
2022-10-12T03:39:07.008Z,100910.38
2022-10-12T03:41:33.444Z,100901.13
2022-10-12T03:44:00.036Z,100904.25
2022-10-12T03:46:26.569Z,100907.94
2022-10-12T03:48:52.993Z,100907.81
2022-10-12T03:51:19.447Z,100907.44
2022-10-12T03:53:46.119Z,100903.50
2022-10-12T03:56:12.887Z,100903.84
2022-10-12T03:58:39.320Z,100908.28
2022-10-12T04:01:05.851Z,100907.06
2022-10-12T04:03:33.634Z,100905.56
2022-10-12T04:06:00.041Z,100903.09
2022-10-12T04:08:29.108Z,100907.78
2022-10-12T04:10:56.072Z,100901.16
2022-10-12T04:13:22.647Z,100906.16
2022-10-12T04:15:49.316Z,100909.28
2022-10-12T04:18:16.018Z,100901.41
2022-10-12T04:20:42.452Z,100905.63
2022-10-12T04:23:09.067Z,100902.50
2022-10-12T04:25:35.542Z,100907.31
2022-10-12T04:28:01.985Z,100914.19
2022-10-12T04:30:29.107Z,100908.53
2022-10-12T04:32:55.767Z,100909.94
2022-10-12T04:35:22.208Z,100903.66
2022-10-12T04:37:48.709Z,100911.66
2022-10-12T04:40:15.121Z,100911.28
2022-10-12T04:42:41.570Z,100915.72
2022-10-12T04:45:08.572Z,100913.47
2022-10-12T04:47:35.791Z,100912.16
2022-10-12T04:50:03.007Z,100912.16
2022-10-12T04:52:29.416Z,100915.38
2022-10-12T04:54:55.837Z,100912.16
2022-10-12T04:57:22.360Z,100920.25
2022-10-12T04:59:48.934Z,100922.22
2022-10-12T05:02:15.824Z,100923.19
2022-10-12T05:04:42.421Z,100928.88
2022-10-12T05:07:09.079Z,100935.59
2022-10-12T05:09:35.566Z,100934.91
2022-10-12T05:12:02.406Z,100929.81
2022-10-12T05:14:35.014Z,100937.13
2022-10-12T05:17:03.276Z,100939.00
2022-10-12T05:19:29.863Z,100948.00
2022-10-12T05:21:56.496Z,100942.75
2022-10-12T05:24:23.093Z,100941.78
2022-10-12T05:26:49.785Z,100951.78
2022-10-12T05:29:16.869Z,100952.47
2022-10-12T05:31:43.331Z,100955.50
2022-10-12T05:34:10.024Z,100959.75
2022-10-12T05:36:36.668Z,100957.88
2022-10-12T05:39:05.907Z,100958.25
2022-10-12T05:41:32.490Z,100955.78
2022-10-12T05:43:58.907Z,100963.06
2022-10-12T05:46:25.650Z,100963.56
2022-10-12T05:48:52.135Z,100970.16
2022-10-12T05:51:18.757Z,100964.16
2022-10-12T05:53:45.257Z,100962.78
2022-10-12T05:56:11.814Z,100961.41
2022-10-12T05:58:38.362Z,100963.06
2022-10-12T06:01:12.390Z,100966.28
2022-10-12T06:03:38.958Z,100969.66
2022-10-12T06:06:06.897Z,100972.88
2022-10-12T06:08:34.092Z,100972.72
2022-10-12T06:11:00.513Z,100974.03
2022-10-12T06:13:26.936Z,100973.06
2022-10-12T06:15:53.377Z,100977.03
2022-10-12T06:18:20.279Z,100977.03
2022-10-12T06:21:14.868Z,100980.81
2022-10-12T06:23:40.541Z,100976.41
2022-10-12T06:26:07.102Z,100982.88
2022-10-12T06:28:33.686Z,100988.53
2022-10-12T06:31:01.623Z,100987.78
2022-10-12T06:33:28.748Z,100979.88
2022-10-12T06:35:55.750Z,100982.50
2022-10-12T06:38:22.597Z,100985.63
2022-10-12T06:40:49.294Z,100989.09
2022-10-12T06:43:15.917Z,100984.38
2022-10-12T06:45:42.406Z,100992.47
2022-10-12T06:48:09.297Z,100992.09
2022-10-12T06:50:36.016Z,100991.88
2022-10-12T06:53:04.695Z,100999.19
2022-10-12T06:55:31.510Z,100998.22
2022-10-12T06:57:57.967Z,100994.63
2022-10-12T07:00:24.994Z,100994.50
2022-10-12T07:02:52.206Z,100993.78
2022-10-12T07:05:19.307Z,100998.88
2022-10-12T07:07:45.781Z,100996.84
2022-10-12T07:10:12.536Z,100998.63
2022-10-12T07:12:39.412Z,101005.53
2022-10-12T07:15:07.328Z,101005.66
2022-10-12T07:17:33.911Z,101009.06
2022-10-12T07:20:00.360Z,101013.19
2022-10-12T07:22:27.239Z,101011.28
2022-10-12T07:37:44.366Z,101082.13
2022-10-12T07:40:10.943Z,101102.22
2022-10-12T07:42:48.899Z,101109.44
2022-10-12T07:45:30.252Z,101110.19
2022-10-12T07:47:56.748Z,101101.22
2022-10-12T07:50:23.410Z,101108.09
2022-10-12T07:52:56.236Z,101107.16
2022-10-12T07:55:22.746Z,101107.25
2022-10-12T07:57:49.159Z,101105.91
2022-10-12T08:00:22.181Z,101112.41
2022-10-12T08:02:48.767Z,101106.69
2022-10-12T08:05:15.246Z,101102.47
2022-10-12T08:07:48.252Z,101107.25
2022-10-12T08:10:14.754Z,101101.78
2022-10-12T08:12:41.343Z,101098.84
2022-10-12T08:15:15.256Z,101108.00
2022-10-12T08:17:41.840Z,101104.50
2022-10-12T08:20:08.630Z,101105.09
2022-10-12T08:22:41.155Z,101106.00
2022-10-12T08:25:07.960Z,101106.69
2022-10-12T08:27:36.112Z,101101.75
2022-10-12T08:30:09.166Z,101091.50
2022-10-12T08:32:35.656Z,101094.44
2022-10-12T08:35:02.213Z,101097.25
2022-10-12T08:37:42.295Z,101110.00
2022-10-12T08:40:14.314Z,101108.88
2022-10-12T08:42:55.177Z,101089.03
2022-10-12T08:45:36.374Z,101078.72
2022-10-12T08:48:25.173Z,101051.88
2022-10-12T08:51:03.886Z,101050.72
2022-10-12T08:53:54.179Z,101042.19
2022-10-12T08:56:20.865Z,101044.16
2022-10-12T08:58:48.418Z,101034.38
2022-10-12T09:01:30.224Z,101039.47
2022-10-12T09:04:13.353Z,101032.59
2022-10-12T09:06:53.198Z,101028.38
2022-10-12T09:09:46.596Z,101018.34
2022-10-12T09:12:30.289Z,101022.22
2022-10-12T09:15:00.507Z,101025.78
2022-10-12T09:17:37.304Z,101021.28
2022-10-12T09:20:33.214Z,101022.88
2022-10-12T09:23:35.371Z,101016.69
2022-10-12T09:26:09.953Z,101012.28
2022-10-12T09:28:51.352Z,101010.50
2022-10-12T09:31:43.430Z,101009.50
2022-10-12T09:34:19.333Z,101015.34
2022-10-12T09:36:55.479Z,101003.84
2022-10-12T09:39:35.545Z,101003.75
2022-10-12T09:42:02.333Z,101006.31
2022-10-12T09:44:35.871Z,101001.84
2022-10-12T09:47:04.331Z,101007.34
2022-10-12T09:49:41.124Z,101002.66
2022-10-12T09:52:08.270Z,101005.16
2022-10-12T09:54:35.557Z,101003.34
2022-10-12T09:57:02.717Z,101000.53
2022-10-12T09:59:42.621Z,100997.56
2022-10-12T10:02:11.864Z,100998.09
2022-10-12T10:04:39.470Z,100999.63
2022-10-12T10:07:24.373Z,101004.00
2022-10-12T10:10:10.197Z,101001.13
2022-10-12T10:12:43.011Z,101006.59
2022-10-12T10:15:25.018Z,100992.19
2022-10-12T10:17:57.065Z,101003.03
2022-10-12T10:20:28.260Z,101004.88
2022-10-12T10:22:54.831Z,101000.63
2022-10-12T10:25:22.832Z,101004.03
2022-10-12T10:27:50.958Z,100998.16
2022-10-12T10:30:29.596Z,101001.91
2022-10-12T10:33:18.271Z,100990.38
2022-10-12T10:36:22.418Z,100984.56
2022-10-12T10:38:55.692Z,100978.97
2022-10-12T10:41:26.361Z,100983.47
2022-10-12T10:43:52.989Z,100974.00
2022-10-12T10:46:27.246Z,100974.41
2022-10-12T10:49:01.715Z,100974.69
2022-10-12T10:51:51.368Z,100973.41
2022-10-12T10:54:23.867Z,100965.00
2022-10-12T10:56:52.567Z,100965.97
2022-10-12T10:59:22.411Z,100975.38
2022-10-12T11:01:55.573Z,100968.97
2022-10-12T11:04:42.012Z,100966.22
2022-10-12T11:07:21.019Z,100955.03
2022-10-12T11:09:52.137Z,100966.06
2022-10-12T11:12:31.155Z,100962.00
2022-10-12T11:15:05.928Z,100964.97
2022-10-12T11:17:35.402Z,100956.19
2022-10-12T11:20:15.760Z,100949.31
2022-10-12T11:23:23.837Z,100955.84
2022-10-12T11:26:04.265Z,100968.25
2022-10-12T11:28:32.685Z,100957.44
2022-10-12T11:31:00.494Z,100960.06
2022-10-12T11:33:42.534Z,100955.44
2022-10-12T11:36:16.174Z,100969.13
2022-10-12T11:38:47.510Z,100957.81
2022-10-12T11:41:35.729Z,100956.34
2022-10-12T11:44:16.061Z,100956.44
2022-10-12T11:46:57.086Z,100950.44
2022-10-12T11:49:29.234Z,100948.91
2022-10-12T11:51:58.748Z,100950.84
2022-10-12T11:54:32.724Z,100935.34
2022-10-12T11:57:05.182Z,100940.31
2022-10-12T11:59:48.545Z,100940.06
2022-10-12T12:02:23.416Z,100939.41
2022-10-12T12:04:51.145Z,100942.13
2022-10-12T12:07:48.981Z,100945.16
2022-10-12T12:10:38.037Z,100938.97
2022-10-12T12:13:11.616Z,100949.28
2022-10-12T12:15:43.143Z,100946.00
2022-10-12T12:18:15.640Z,100945.13
2022-10-12T12:20:42.623Z,100943.78
2022-10-12T12:23:29.494Z,100940.38
2022-10-12T12:26:16.870Z,100937.81
2022-10-12T12:28:49.655Z,100942.94
2022-10-12T12:31:22.423Z,100940.81
2022-10-12T12:33:52.067Z,100936.22
2022-10-12T12:36:33.159Z,100935.28
2022-10-12T12:39:00.453Z,100937.28
2022-10-12T12:42:00.601Z,100940.13
2022-10-12T12:44:34.477Z,100944.03
2022-10-12T12:47:01.136Z,100934.00
2022-10-12T12:49:46.377Z,100934.03
2022-10-12T12:52:28.495Z,100930.59
2022-10-12T12:55:16.574Z,100929.53
2022-10-12T12:57:54.657Z,100926.78
2022-10-12T13:00:22.736Z,100926.44
2022-10-12T13:03:34.180Z,100926.88
2022-10-12T13:06:14.992Z,100934.03
2022-10-12T13:09:15.424Z,100934.50
2022-10-12T13:12:06.755Z,100930.44
2022-10-12T13:15:01.087Z,100936.72
2022-10-12T13:17:39.837Z,100926.88
2022-10-12T13:20:20.980Z,100932.47
2022-10-12T13:22:50.716Z,100927.59
2022-10-12T13:25:59.558Z,100935.03
2022-10-12T13:28:29.086Z,100931.31
2022-10-12T13:31:02.909Z,100917.66
2022-10-12T13:34:08.072Z,100922.84
2022-10-12T13:36:36.914Z,100917.31
2022-10-12T13:39:21.269Z,100935.03
2022-10-12T13:41:50.690Z,100934.78
2022-10-12T13:44:26.802Z,100928.94
2022-10-12T13:46:56.689Z,100927.88
2022-10-12T13:49:24.987Z,100925.09
2022-10-12T13:51:54.395Z,100922.22
2022-10-12T13:54:26.213Z,100923.66
2022-10-12T13:57:00.692Z,100922.13
2022-10-12T13:59:28.699Z,100919.19
2022-10-12T14:02:01.902Z,100914.22
2022-10-12T14:04:30.922Z,100924.00
2022-10-12T14:07:04.352Z,100915.47
2022-10-12T14:09:40.360Z,100915.69
2022-10-12T14:12:07.527Z,100910.66
2022-10-12T14:14:36.266Z,100920.13
2022-10-12T14:17:03.289Z,100914.03
2022-10-12T14:19:51.448Z,100912.28
2022-10-12T14:22:32.495Z,100905.16
2022-10-12T14:25:08.009Z,100908.81
2022-10-12T14:27:36.237Z,100915.63
2022-10-12T14:30:23.683Z,100913.78
2022-10-12T14:32:53.967Z,100915.31
2022-10-12T14:35:25.546Z,100915.22
2022-10-12T14:37:55.099Z,100917.47
2022-10-12T14:40:39.335Z,100913.81
2022-10-12T14:43:13.325Z,100910.44
2022-10-12T14:45:40.603Z,100909.97
2022-10-12T14:48:18.495Z,100910.25
2022-10-12T14:50:48.338Z,100911.25
2022-10-12T14:53:15.746Z,100914.25
2022-10-12T14:55:42.939Z,100909.78
2022-10-12T14:58:15.301Z,100906.44
2022-10-12T15:00:42.535Z,100906.94
2022-10-12T15:03:09.319Z,100912.28
2022-10-12T15:05:36.064Z,100914.06
2022-10-12T15:08:09.299Z,100910.97
2022-10-12T15:10:37.819Z,100913.22
2022-10-12T15:13:04.604Z,100909.28
2022-10-12T15:15:40.195Z,100906.91
2022-10-12T15:18:07.797Z,100910.28
2022-10-12T15:20:35.007Z,100911.88
2022-10-12T15:23:03.090Z,100911.75
2022-10-12T15:25:35.931Z,100906.72
2022-10-12T15:28:03.359Z,100905.44
2022-10-12T15:30:30.217Z,100910.53
2022-10-12T15:32:56.958Z,100902.41
2022-10-12T15:35:26.122Z,100902.53
2022-10-12T15:37:53.230Z,100904.38
2022-10-12T15:40:20.971Z,100905.56
2022-10-12T15:42:47.805Z,100900.63
2022-10-12T15:45:22.537Z,100901.34
2022-10-12T15:47:50.541Z,100895.75
2022-10-12T15:50:19.258Z,100897.00
2022-10-12T15:52:46.397Z,100895.50
2022-10-12T15:55:22.085Z,100892.94
2022-10-12T15:57:49.054Z,100898.56
2022-10-12T16:00:17.066Z,100900.44
2022-10-12T16:02:43.561Z,100896.66
2022-10-12T16:05:20.280Z,100904.66
2022-10-12T16:07:47.126Z,100903.94
2022-10-12T16:10:15.332Z,100909.50
2022-10-12T16:12:43.499Z,100908.13
2022-10-12T16:15:12.693Z,100903.34
2022-10-12T16:17:39.495Z,100909.97
2022-10-12T16:20:06.789Z,100914.16
2022-10-12T16:22:33.312Z,100902.94
2022-10-12T16:24:59.777Z,100903.66
2022-10-12T16:27:26.312Z,100901.13
2022-10-12T16:29:52.757Z,100914.16
2022-10-12T16:32:19.265Z,100906.31
2022-10-12T16:34:46.353Z,100903.78
2022-10-12T16:37:12.974Z,100906.56
2022-10-12T16:39:39.854Z,100912.59
2022-10-12T16:42:06.352Z,100908.69
2022-10-12T16:44:32.885Z,100916.81
2022-10-12T16:47:01.810Z,100917.09
2022-10-12T16:49:28.688Z,100909.09
2022-10-12T16:51:55.274Z,100908.09
2022-10-12T16:54:23.002Z,100910.34
2022-10-12T16:56:49.515Z,100901.94
2022-10-12T16:59:16.080Z,100908.09
2022-10-12T17:01:42.857Z,100908.34
2022-10-12T17:04:12.656Z,100903.59
2022-10-12T17:06:39.461Z,100912.53
2022-10-12T17:09:05.932Z,100906.66
2022-10-12T17:11:36.321Z,100910.03
2022-10-12T17:14:04.179Z,100902.03
2022-10-12T17:16:48.963Z,100905.00
2022-10-12T17:19:20.890Z,100906.25
2022-10-12T17:21:48.154Z,100908.91
2022-10-12T17:24:18.822Z,100910.03
2022-10-12T17:26:46.514Z,100904.00
2022-10-12T17:29:15.532Z,100906.66
2022-10-12T17:31:42.270Z,100909.72
2022-10-12T17:34:17.076Z,100908.03
2022-10-12T17:36:43.658Z,100915.63
2022-10-12T17:39:10.142Z,100916.72
2022-10-12T17:41:37.408Z,100912.69
2022-10-12T17:44:03.953Z,100912.09
2022-10-12T17:46:30.429Z,100915.16
2022-10-12T17:48:57.035Z,100912.22
2022-10-12T17:51:23.593Z,100909.31
2022-10-12T17:53:50.098Z,100901.56
2022-10-12T17:56:17.116Z,100907.16
2022-10-12T17:58:44.005Z,100902.84
2022-10-12T18:01:13.300Z,100900.19
2022-10-12T18:03:41.977Z,100902.44
2022-10-12T18:06:14.336Z,100901.44
2022-10-12T18:08:40.872Z,100896.25
2022-10-12T18:11:08.052Z,100902.28
2022-10-12T18:13:35.691Z,100901.31
2022-10-12T18:16:02.374Z,100904.81
2022-10-12T18:18:29.378Z,100909.31
2022-10-12T18:20:55.990Z,100910.13
2022-10-12T18:23:22.585Z,100911.25
2022-10-12T18:25:50.811Z,100907.75
2022-10-12T18:28:20.203Z,100909.56
2022-10-12T18:45:57.141Z,100912.31
2022-10-12T18:48:23.873Z,100909.22
2022-10-12T18:50:51.050Z,100906.13
2022-10-12T18:53:17.471Z,100913.25
2022-10-12T18:55:44.006Z,100916.06
2022-10-12T18:58:10.477Z,100916.19
2022-10-12T19:00:37.232Z,100915.91
2022-10-12T19:03:03.821Z,100914.53
2022-10-12T19:05:31.052Z,100914.78
2022-10-12T19:07:58.382Z,100919.56
2022-10-12T19:10:24.835Z,100919.38
2022-10-12T19:12:51.295Z,100920.91
2022-10-12T19:15:18.154Z,100922.44
2022-10-12T19:17:44.587Z,100915.28
2022-10-12T19:20:11.265Z,100914.59
2022-10-12T19:22:38.170Z,100912.78
2022-10-12T19:25:04.952Z,100914.31
2022-10-12T19:27:32.417Z,100923.41
2022-10-12T19:29:58.968Z,100922.81
2022-10-12T19:32:25.446Z,100921.66
2022-10-12T19:34:52.217Z,100924.03
2022-10-12T19:37:19.017Z,100924.16
2022-10-12T19:39:47.030Z,100925.84
2022-10-12T19:42:13.465Z,100929.72
2022-10-12T19:44:40.159Z,100922.75
2022-10-12T19:47:06.920Z,100928.19
2022-10-12T19:49:36.947Z,100921.31
2022-10-12T19:52:05.017Z,100925.19
2022-10-12T19:54:36.097Z,100929.56
2022-10-12T19:57:02.959Z,100928.56
2022-10-12T19:59:29.633Z,100927.88
2022-10-12T20:01:56.069Z,100923.25
2022-10-12T20:04:22.520Z,100925.91
2022-10-12T20:06:49.461Z,100923.81
2022-10-12T20:09:15.985Z,100920.56
2022-10-12T20:11:42.530Z,100921.22
2022-10-12T20:14:10.287Z,100924.13
2022-10-12T20:16:36.987Z,100917.97
2022-10-12T20:19:04.988Z,100915.66
2022-10-12T20:21:32.664Z,100920.47
2022-10-12T20:23:59.176Z,100921.19
2022-10-12T20:26:26.259Z,100924.38
2022-10-12T20:28:54.013Z,100915.09
2022-10-12T20:31:23.290Z,100921.81
2022-10-12T20:33:53.142Z,100920.91
2022-10-12T20:36:22.599Z,100921.63
2022-10-12T20:38:49.380Z,100929.88
2022-10-12T20:41:18.670Z,100920.34
2022-10-12T20:43:45.289Z,100923.00
2022-10-12T20:46:14.419Z,100926.50
2022-10-12T20:48:41.637Z,100931.94
2022-10-12T20:51:10.094Z,100923.41
2022-10-12T20:53:37.748Z,100918.19
2022-10-12T20:56:07.361Z,100926.44
2022-10-12T20:58:34.149Z,100926.09
2022-10-12T21:01:11.201Z,100920.91
2022-10-12T21:03:38.250Z,100924.78
2022-10-12T21:06:10.737Z,100924.91
2022-10-12T21:08:37.229Z,100922.66
2022-10-12T21:11:04.416Z,100922.03
2022-10-12T21:13:32.733Z,100918.47
2022-10-12T21:15:59.183Z,100926.94
2022-10-12T21:18:26.184Z,100925.63
2022-10-12T21:20:54.544Z,100929.38
2022-10-12T21:23:21.287Z,100927.22
2022-10-12T21:25:47.739Z,100919.50
2022-10-12T21:28:14.248Z,100927.13
2022-10-12T21:30:40.873Z,100926.50
2022-10-12T21:33:07.421Z,100926.88
2022-10-12T21:35:34.355Z,100919.53
2022-10-12T21:38:00.777Z,100929.44
2022-10-12T21:40:27.264Z,100932.34
2022-10-12T21:42:53.717Z,100926.91
2022-10-12T21:45:20.379Z,100924.72
2022-10-12T21:47:48.021Z,100928.69
2022-10-12T21:50:14.593Z,100931.34
2022-10-12T21:52:41.188Z,100932.09
2022-10-12T21:55:08.617Z,100930.41
2022-10-12T21:57:37.242Z,100932.81
2022-10-12T22:00:05.441Z,100934.03
2022-10-12T22:02:32.658Z,100932.38
2022-10-12T22:04:59.146Z,100936.81
2022-10-12T22:07:25.636Z,100936.19
2022-10-12T22:09:52.384Z,100928.44
2022-10-12T22:12:19.171Z,100928.06
2022-10-12T22:14:46.169Z,100940.22
2022-10-12T22:17:12.916Z,100933.94
2022-10-12T22:19:39.548Z,100931.00
2022-10-12T22:22:06.096Z,100940.16
2022-10-12T22:24:32.804Z,100940.38
2022-10-12T22:26:59.441Z,100929.75
2022-10-12T22:29:26.173Z,100936.25
2022-10-12T22:31:52.753Z,100932.13
2022-10-12T22:34:20.411Z,100929.09
2022-10-12T22:36:46.886Z,100929.16
2022-10-12T22:39:13.447Z,100942.75
2022-10-12T22:41:39.944Z,100938.53
2022-10-12T22:44:06.493Z,100933.91
2022-10-12T22:46:33.054Z,100931.69
2022-10-12T22:48:59.622Z,100928.53
2022-10-12T22:51:32.505Z,100933.72
2022-10-12T22:53:59.531Z,100934.91
2022-10-12T22:56:26.464Z,100940.28
2022-10-12T22:58:58.533Z,100934.91
2022-10-12T23:01:25.554Z,100939.94
2022-10-12T23:03:52.073Z,100936.53
2022-10-12T23:06:18.984Z,100933.38
2022-10-12T23:08:46.155Z,100937.19
2022-10-12T23:11:15.945Z,100933.81
2022-10-12T23:13:42.750Z,100930.00
2022-10-12T23:16:15.399Z,100938.19
2022-10-12T23:18:42.265Z,100931.06
2022-10-12T23:21:14.495Z,100932.97
2022-10-12T23:23:41.707Z,100937.66
2022-10-12T23:26:19.406Z,100938.72
2022-10-12T23:28:46.455Z,100939.66
2022-10-12T23:31:15.058Z,100939.78
2022-10-12T23:33:41.836Z,100941.91
2022-10-12T23:36:11.077Z,100934.91
2022-10-12T23:38:38.533Z,100935.31
2022-10-12T23:41:05.816Z,100939.53
2022-10-12T23:43:33.497Z,100940.81
2022-10-12T23:46:00.309Z,100942.06
2022-10-12T23:48:27.264Z,100939.56
2022-10-12T23:50:53.761Z,100929.16
2022-10-12T23:53:21.078Z,100934.69
2022-10-12T23:55:48.017Z,100937.66
2022-10-12T23:58:14.803Z,100934.91
